sensor_id;sensor_type;location;lat;lon;timestamp;P1;durP1;ratioP1;P2;durP2;ratioP2
2458;SDS011;1241;50.920;6.936;2023-02-26T00:00:03;2.75;;;2.55;;
2458;SDS011;1241;50.920;6.936;2023-02-26T00:02:33;4.18;;;3.10;;
2458;SDS011;1241;50.920;6.936;2023-02-26T00:05:01;3.30;;;2.40;;
2458;SDS011;1241;50.920;6.936;2023-02-26T00:07:27;12.65;;;2.72;;
2458;SDS011;1241;50.920;6.936;2023-02-26T00:09:53;3.37;;;2.50;;
2458;SDS011;1241;50.920;6.936;2023-02-26T00:12:20;4.82;;;2.75;;
2458;SDS011;1241;50.920;6.936;2023-02-26T00:14:46;4.32;;;2.08;;
2458;SDS011;1241;50.920;6.936;2023-02-26T00:19:57;5.97;;;2.22;;
2458;SDS011;1241;50.920;6.936;2023-02-26T00:22:23;4.63;;;3.22;;
2458;SDS011;1241;50.920;6.936;2023-02-26T00:24:49;3.72;;;2.95;;
2458;SDS011;1241;50.920;6.936;2023-02-26T00:27:14;5.40;;;3.50;;
2458;SDS011;1241;50.920;6.936;2023-02-26T00:29:40;3.50;;;2.37;;
2458;SDS011;1241;50.920;6.936;2023-02-26T00:32:06;10.40;;;3.00;;
2458;SDS011;1241;50.920;6.936;2023-02-26T00:34:32;4.47;;;2.95;;
2458;SDS011;1241;50.920;6.936;2023-02-26T00:42:04;3.67;;;2.60;;
2458;SDS011;1241;50.920;6.936;2023-02-26T00:44:30;5.97;;;3.28;;
2458;SDS011;1241;50.920;6.936;2023-02-26T00:46:59;5.57;;;2.72;;
2458;SDS011;1241;50.920;6.936;2023-02-26T00:53:12;6.75;;;3.05;;
2458;SDS011;1241;50.920;6.936;2023-02-26T00:55:26;4.00;;;2.50;;
2458;SDS011;1241;50.920;6.936;2023-02-26T00:57:52;3.65;;;2.60;;
2458;SDS011;1241;50.920;6.936;2023-02-26T01:00:18;4.07;;;2.70;;
2458;SDS011;1241;50.920;6.936;2023-02-26T01:02:44;6.68;;;2.80;;
2458;SDS011;1241;50.920;6.936;2023-02-26T01:05:11;3.03;;;2.72;;
2458;SDS011;1241;50.920;6.936;2023-02-26T01:07:39;3.50;;;2.00;;
2458;SDS011;1241;50.920;6.936;2023-02-26T01:10:18;4.22;;;2.45;;
2458;SDS011;1241;50.920;6.936;2023-02-26T01:12:44;5.50;;;2.53;;
2458;SDS011;1241;50.920;6.936;2023-02-26T01:15:11;4.82;;;2.75;;
2458;SDS011;1241;50.920;6.936;2023-02-26T01:17:50;3.58;;;2.63;;
2458;SDS011;1241;50.920;6.936;2023-02-26T01:20:34;2.80;;;2.35;;
2458;SDS011;1241;50.920;6.936;2023-02-26T01:23:06;5.05;;;3.22;;
2458;SDS011;1241;50.920;6.936;2023-02-26T01:28:08;4.32;;;2.53;;
2458;SDS011;1241;50.920;6.936;2023-02-26T01:30:34;3.88;;;2.58;;
2458;SDS011;1241;50.920;6.936;2023-02-26T01:33:21;5.65;;;2.83;;
2458;SDS011;1241;50.920;6.936;2023-02-26T01:36:02;6.35;;;2.45;;
2458;SDS011;1241;50.920;6.936;2023-02-26T01:49:36;4.18;;;3.30;;
2458;SDS011;1241;50.920;6.936;2023-02-26T01:52:06;3.15;;;2.85;;
2458;SDS011;1241;50.920;6.936;2023-02-26T01:54:52;5.32;;;3.63;;
2458;SDS011;1241;50.920;6.936;2023-02-26T01:57:18;3.43;;;2.50;;
2458;SDS011;1241;50.920;6.936;2023-02-26T01:59:47;4.90;;;2.85;;
2458;SDS011;1241;50.920;6.936;2023-02-26T02:02:20;10.13;;;3.80;;
2458;SDS011;1241;50.920;6.936;2023-02-26T02:04:47;5.10;;;2.90;;
2458;SDS011;1241;50.920;6.936;2023-02-26T02:07:14;4.18;;;2.42;;
2458;SDS011;1241;50.920;6.936;2023-02-26T02:09:40;3.50;;;2.42;;
2458;SDS011;1241;50.920;6.936;2023-02-26T02:17:21;5.05;;;2.92;;
2458;SDS011;1241;50.920;6.936;2023-02-26T02:23:26;2.88;;;2.38;;
2458;SDS011;1241;50.920;6.936;2023-02-26T02:32:17;3.20;;;3.00;;
2458;SDS011;1241;50.920;6.936;2023-02-26T02:34:59;4.05;;;2.80;;
2458;SDS011;1241;50.920;6.936;2023-02-26T02:40:28;3.20;;;2.63;;
2458;SDS011;1241;50.920;6.936;2023-02-26T02:43:01;4.43;;;3.22;;
2458;SDS011;1241;50.920;6.936;2023-02-26T02:48:19;8.00;;;3.45;;
2458;SDS011;1241;50.920;6.936;2023-02-26T02:51:20;5.82;;;3.08;;
2458;SDS011;1241;50.920;6.936;2023-02-26T02:53:52;6.68;;;3.50;;
2458;SDS011;1241;50.920;6.936;2023-02-26T02:56:22;5.45;;;2.78;;
2458;SDS011;1241;50.920;6.936;2023-02-26T02:58:55;6.57;;;3.63;;
2458;SDS011;1241;50.920;6.936;2023-02-26T03:01:29;2.90;;;2.40;;
2458;SDS011;1241;50.920;6.936;2023-02-26T03:04:08;3.35;;;1.98;;
2458;SDS011;1241;50.920;6.936;2023-02-26T03:06:36;4.30;;;2.40;;
2458;SDS011;1241;50.920;6.936;2023-02-26T03:09:03;6.97;;;3.17;;
2458;SDS011;1241;50.920;6.936;2023-02-26T03:11:31;3.72;;;3.30;;
2458;SDS011;1241;50.920;6.936;2023-02-26T03:13:57;4.20;;;2.20;;
2458;SDS011;1241;50.920;6.936;2023-02-26T03:25:16;7.20;;;3.53;;
2458;SDS011;1241;50.920;6.936;2023-02-26T03:27:55;3.53;;;2.97;;
2458;SDS011;1241;50.920;6.936;2023-02-26T03:30:29;5.28;;;3.33;;
2458;SDS011;1241;50.920;6.936;2023-02-26T03:33:16;3.47;;;2.15;;
2458;SDS011;1241;50.920;6.936;2023-02-26T03:35:56;5.50;;;3.13;;
2458;SDS011;1241;50.920;6.936;2023-02-26T03:41:02;2.17;;;1.88;;
2458;SDS011;1241;50.920;6.936;2023-02-26T03:43:35;4.05;;;1.80;;
2458;SDS011;1241;50.920;6.936;2023-02-26T03:46:28;4.00;;;2.20;;
2458;SDS011;1241;50.920;6.936;2023-02-26T03:48:57;5.15;;;2.63;;
2458;SDS011;1241;50.920;6.936;2023-02-26T03:51:27;6.55;;;2.35;;
2458;SDS011;1241;50.920;6.936;2023-02-26T03:54:21;4.53;;;2.85;;
2458;SDS011;1241;50.920;6.936;2023-02-26T03:57:13;3.80;;;2.83;;
2458;SDS011;1241;50.920;6.936;2023-02-26T04:00:05;9.07;;;3.15;;
2458;SDS011;1241;50.920;6.936;2023-02-26T04:02:43;6.70;;;2.30;;
2458;SDS011;1241;50.920;6.936;2023-02-26T04:05:31;3.10;;;1.83;;
2458;SDS011;1241;50.920;6.936;2023-02-26T04:07:59;7.90;;;2.60;;
2458;SDS011;1241;50.920;6.936;2023-02-26T04:10:38;2.25;;;1.60;;
2458;SDS011;1241;50.920;6.936;2023-02-26T04:13:11;4.82;;;2.10;;
2458;SDS011;1241;50.920;6.936;2023-02-26T04:15:37;1.70;;;1.43;;
2458;SDS011;1241;50.920;6.936;2023-02-26T04:18:03;2.70;;;1.70;;
2458;SDS011;1241;50.920;6.936;2023-02-26T04:20:29;4.10;;;1.85;;
2458;SDS011;1241;50.920;6.936;2023-02-26T04:22:55;2.47;;;1.63;;
2458;SDS011;1241;50.920;6.936;2023-02-26T04:25:21;2.45;;;1.70;;
2458;SDS011;1241;50.920;6.936;2023-02-26T04:27:49;2.95;;;2.05;;
2458;SDS011;1241;50.920;6.936;2023-02-26T04:30:15;2.10;;;2.00;;
2458;SDS011;1241;50.920;6.936;2023-02-26T04:32:40;3.43;;;1.80;;
2458;SDS011;1241;50.920;6.936;2023-02-26T04:35:09;3.33;;;1.75;;
2458;SDS011;1241;50.920;6.936;2023-02-26T04:37:35;2.50;;;1.70;;
2458;SDS011;1241;50.920;6.936;2023-02-26T04:40:01;6.00;;;1.80;;
2458;SDS011;1241;50.920;6.936;2023-02-26T04:42:28;2.47;;;1.88;;
2458;SDS011;1241;50.920;6.936;2023-02-26T04:44:54;5.30;;;1.80;;
2458;SDS011;1241;50.920;6.936;2023-02-26T04:47:22;5.65;;;2.90;;
2458;SDS011;1241;50.920;6.936;2023-02-26T04:49:48;3.70;;;1.73;;
2458;SDS011;1241;50.920;6.936;2023-02-26T04:52:14;3.53;;;1.83;;
2458;SDS011;1241;50.920;6.936;2023-02-26T04:54:40;5.23;;;1.60;;
2458;SDS011;1241;50.920;6.936;2023-02-26T04:57:07;2.80;;;2.15;;
2458;SDS011;1241;50.920;6.936;2023-02-26T04:59:33;3.50;;;2.37;;
2458;SDS011;1241;50.920;6.936;2023-02-26T05:02:00;3.65;;;2.50;;
2458;SDS011;1241;50.920;6.936;2023-02-26T05:04:26;4.67;;;2.07;;
2458;SDS011;1241;50.920;6.936;2023-02-26T05:06:55;8.77;;;2.00;;
2458;SDS011;1241;50.920;6.936;2023-02-26T05:09:21;3.50;;;2.30;;
2458;SDS011;1241;50.920;6.936;2023-02-26T05:11:48;4.60;;;1.98;;
2458;SDS011;1241;50.920;6.936;2023-02-26T05:14:14;3.17;;;2.00;;
2458;SDS011;1241;50.920;6.936;2023-02-26T05:16:43;7.32;;;2.72;;
2458;SDS011;1241;50.920;6.936;2023-02-26T05:19:08;2.00;;;1.80;;
2458;SDS011;1241;50.920;6.936;2023-02-26T05:21:34;2.00;;;1.80;;
2458;SDS011;1241;50.920;6.936;2023-02-26T05:24:00;3.80;;;1.73;;
2458;SDS011;1241;50.920;6.936;2023-02-26T05:26:26;2.90;;;2.30;;
2458;SDS011;1241;50.920;6.936;2023-02-26T05:28:51;3.50;;;2.10;;
2458;SDS011;1241;50.920;6.936;2023-02-26T05:31:17;1.93;;;1.80;;
2458;SDS011;1241;50.920;6.936;2023-02-26T05:33:43;1.88;;;1.55;;
2458;SDS011;1241;50.920;6.936;2023-02-26T05:36:09;5.83;;;2.13;;
2458;SDS011;1241;50.920;6.936;2023-02-26T05:38:35;2.40;;;2.20;;
2458;SDS011;1241;50.920;6.936;2023-02-26T05:41:01;1.93;;;1.80;;
2458;SDS011;1241;50.920;6.936;2023-02-26T05:43:27;4.70;;;1.63;;
2458;SDS011;1241;50.920;6.936;2023-02-26T05:45:53;2.00;;;1.10;;
2458;SDS011;1241;50.920;6.936;2023-02-26T05:48:26;4.45;;;2.63;;
2458;SDS011;1241;50.920;6.936;2023-02-26T05:50:52;2.75;;;1.92;;
2458;SDS011;1241;50.920;6.936;2023-02-26T05:53:18;2.70;;;1.93;;
2458;SDS011;1241;50.920;6.936;2023-02-26T05:55:43;2.50;;;2.00;;
2458;SDS011;1241;50.920;6.936;2023-02-26T05:58:09;3.17;;;2.30;;
2458;SDS011;1241;50.920;6.936;2023-02-26T06:00:35;6.55;;;2.35;;
2458;SDS011;1241;50.920;6.936;2023-02-26T06:03:01;3.97;;;1.90;;
2458;SDS011;1241;50.920;6.936;2023-02-26T06:05:27;7.17;;;3.27;;
2458;SDS011;1241;50.920;6.936;2023-02-26T06:07:52;4.63;;;2.00;;
2458;SDS011;1241;50.920;6.936;2023-02-26T06:10:18;5.30;;;2.10;;
2458;SDS011;1241;50.920;6.936;2023-02-26T06:12:44;2.77;;;2.20;;
2458;SDS011;1241;50.920;6.936;2023-02-26T06:15:10;3.93;;;1.90;;
2458;SDS011;1241;50.920;6.936;2023-02-26T06:17:36;3.90;;;2.60;;
2458;SDS011;1241;50.920;6.936;2023-02-26T06:20:03;4.15;;;2.13;;
2458;SDS011;1241;50.920;6.936;2023-02-26T06:22:29;2.70;;;2.05;;
2458;SDS011;1241;50.920;6.936;2023-02-26T06:24:55;2.45;;;1.95;;
2458;SDS011;1241;50.920;6.936;2023-02-26T06:27:21;5.53;;;2.80;;
2458;SDS011;1241;50.920;6.936;2023-02-26T06:29:47;5.00;;;2.58;;
2458;SDS011;1241;50.920;6.936;2023-02-26T06:32:13;3.47;;;2.60;;
2458;SDS011;1241;50.920;6.936;2023-02-26T06:34:38;5.10;;;3.00;;
2458;SDS011;1241;50.920;6.936;2023-02-26T06:37:04;3.63;;;2.57;;
2458;SDS011;1241;50.920;6.936;2023-02-26T06:39:30;3.83;;;2.20;;
2458;SDS011;1241;50.920;6.936;2023-02-26T06:41:56;5.60;;;3.00;;
2458;SDS011;1241;50.920;6.936;2023-02-26T06:44:21;4.33;;;2.67;;
2458;SDS011;1241;50.920;6.936;2023-02-26T06:46:47;3.13;;;2.53;;
2458;SDS011;1241;50.920;6.936;2023-02-26T06:49:13;3.72;;;2.60;;
2458;SDS011;1241;50.920;6.936;2023-02-26T06:51:39;5.33;;;3.00;;
2458;SDS011;1241;50.920;6.936;2023-02-26T06:54:05;3.80;;;3.22;;
2458;SDS011;1241;50.920;6.936;2023-02-26T06:56:31;6.43;;;3.70;;
2458;SDS011;1241;50.920;6.936;2023-02-26T06:58:56;4.63;;;3.40;;
2458;SDS011;1241;50.920;6.936;2023-02-26T07:01:22;7.33;;;3.43;;
2458;SDS011;1241;50.920;6.936;2023-02-26T07:03:48;5.32;;;3.25;;
2458;SDS011;1241;50.920;6.936;2023-02-26T07:06:14;4.93;;;3.30;;
2458;SDS011;1241;50.920;6.936;2023-02-26T07:08:40;5.85;;;3.38;;
2458;SDS011;1241;50.920;6.936;2023-02-26T07:11:06;4.45;;;2.75;;
2458;SDS011;1241;50.920;6.936;2023-02-26T07:13:34;3.78;;;3.20;;
2458;SDS011;1241;50.920;6.936;2023-02-26T07:16:01;5.85;;;3.55;;
2458;SDS011;1241;50.920;6.936;2023-02-26T07:18:27;3.08;;;2.78;;
2458;SDS011;1241;50.920;6.936;2023-02-26T07:20:53;4.43;;;3.13;;
2458;SDS011;1241;50.920;6.936;2023-02-26T07:23:18;2.70;;;2.50;;
2458;SDS011;1241;50.920;6.936;2023-02-26T07:25:44;4.73;;;3.33;;
2458;SDS011;1241;50.920;6.936;2023-02-26T07:28:12;6.07;;;3.53;;
2458;SDS011;1241;50.920;6.936;2023-02-26T07:30:38;3.87;;;3.33;;
2458;SDS011;1241;50.920;6.936;2023-02-26T07:33:07;7.70;;;3.42;;
2458;SDS011;1241;50.920;6.936;2023-02-26T07:35:33;4.82;;;3.70;;
2458;SDS011;1241;50.920;6.936;2023-02-26T07:37:59;5.47;;;3.03;;
2458;SDS011;1241;50.920;6.936;2023-02-26T07:40:25;4.60;;;3.17;;
2458;SDS011;1241;50.920;6.936;2023-02-26T07:42:50;4.37;;;3.37;;
2458;SDS011;1241;50.920;6.936;2023-02-26T07:45:17;3.85;;;3.55;;
2458;SDS011;1241;50.920;6.936;2023-02-26T07:47:46;4.85;;;4.30;;
2458;SDS011;1241;50.920;6.936;2023-02-26T07:50:13;3.70;;;3.35;;
2458;SDS011;1241;50.920;6.936;2023-02-26T07:52:38;5.00;;;3.70;;
2458;SDS011;1241;50.920;6.936;2023-02-26T07:55:05;3.55;;;3.25;;
2458;SDS011;1241;50.920;6.936;2023-02-26T07:57:31;6.30;;;4.20;;
2458;SDS011;1241;50.920;6.936;2023-02-26T07:59:57;4.90;;;3.40;;
2458;SDS011;1241;50.920;6.936;2023-02-26T08:02:23;9.23;;;4.00;;
2458;SDS011;1241;50.920;6.936;2023-02-26T08:04:48;5.40;;;4.63;;
2458;SDS011;1241;50.920;6.936;2023-02-26T08:07:14;4.77;;;3.23;;
2458;SDS011;1241;50.920;6.936;2023-02-26T08:09:40;3.93;;;3.63;;
2458;SDS011;1241;50.920;6.936;2023-02-26T08:12:06;6.20;;;4.00;;
2458;SDS011;1241;50.920;6.936;2023-02-26T08:14:31;6.37;;;3.90;;
2458;SDS011;1241;50.920;6.936;2023-02-26T08:16:57;3.60;;;3.30;;
2458;SDS011;1241;50.920;6.936;2023-02-26T08:19:23;4.43;;;3.97;;
2458;SDS011;1241;50.920;6.936;2023-02-26T08:21:48;5.97;;;3.10;;
2458;SDS011;1241;50.920;6.936;2023-02-26T08:24:14;3.77;;;3.30;;
2458;SDS011;1241;50.920;6.936;2023-02-26T08:26:40;3.73;;;3.37;;
2458;SDS011;1241;50.920;6.936;2023-02-26T08:29:06;3.60;;;3.30;;
2458;SDS011;1241;50.920;6.936;2023-02-26T08:31:32;6.50;;;3.50;;
2458;SDS011;1241;50.920;6.936;2023-02-26T08:33:59;4.07;;;3.78;;
2458;SDS011;1241;50.920;6.936;2023-02-26T08:36:25;6.73;;;3.83;;
2458;SDS011;1241;50.920;6.936;2023-02-26T08:38:51;5.07;;;3.60;;
2458;SDS011;1241;50.920;6.936;2023-02-26T08:41:17;3.95;;;3.53;;
2458;SDS011;1241;50.920;6.936;2023-02-26T08:43:42;4.80;;;2.37;;
2458;SDS011;1241;50.920;6.936;2023-02-26T08:46:09;3.40;;;3.08;;
2458;SDS011;1241;50.920;6.936;2023-02-26T08:48:34;4.37;;;3.10;;
2458;SDS011;1241;50.920;6.936;2023-02-26T08:51:00;3.87;;;3.37;;
2458;SDS011;1241;50.920;6.936;2023-02-26T08:53:26;4.00;;;3.50;;
2458;SDS011;1241;50.920;6.936;2023-02-26T08:55:52;3.73;;;2.90;;
2458;SDS011;1241;50.920;6.936;2023-02-26T08:58:18;5.10;;;2.78;;
2458;SDS011;1241;50.920;6.936;2023-02-26T09:00:44;5.72;;;3.33;;
2458;SDS011;1241;50.920;6.936;2023-02-26T09:03:10;3.45;;;2.95;;
2458;SDS011;1241;50.920;6.936;2023-02-26T09:05:36;6.95;;;3.55;;
2458;SDS011;1241;50.920;6.936;2023-02-26T09:08:02;3.70;;;3.10;;
2458;SDS011;1241;50.920;6.936;2023-02-26T09:10:27;3.10;;;2.50;;
2458;SDS011;1241;50.920;6.936;2023-02-26T09:12:53;6.47;;;2.63;;
2458;SDS011;1241;50.920;6.936;2023-02-26T09:15:19;2.73;;;2.47;;
2458;SDS011;1241;50.920;6.936;2023-02-26T09:17:46;4.80;;;3.28;;
2458;SDS011;1241;50.920;6.936;2023-02-26T09:20:12;2.30;;;2.10;;
2458;SDS011;1241;50.920;6.936;2023-02-26T09:22:39;4.22;;;2.67;;
2458;SDS011;1241;50.920;6.936;2023-02-26T09:25:05;2.58;;;1.80;;
2458;SDS011;1241;50.920;6.936;2023-02-26T09:27:32;2.97;;;2.67;;
2458;SDS011;1241;50.920;6.936;2023-02-26T09:29:59;3.03;;;1.98;;
2458;SDS011;1241;50.920;6.936;2023-02-26T09:32:25;2.70;;;2.47;;
2458;SDS011;1241;50.920;6.936;2023-02-26T09:34:51;5.73;;;3.00;;
2458;SDS011;1241;50.920;6.936;2023-02-26T09:37:17;2.50;;;1.97;;
2458;SDS011;1241;50.920;6.936;2023-02-26T09:39:43;2.53;;;1.73;;
2458;SDS011;1241;50.920;6.936;2023-02-26T09:45:11;1.38;;;1.30;;
2458;SDS011;1241;50.920;6.936;2023-02-26T09:47:54;2.60;;;1.60;;
2458;SDS011;1241;50.920;6.936;2023-02-26T09:50:22;4.07;;;2.30;;
2458;SDS011;1241;50.920;6.936;2023-02-26T09:59:03;1.80;;;1.48;;
2458;SDS011;1241;50.920;6.936;2023-02-26T10:01:37;1.80;;;1.30;;
2458;SDS011;1241;50.920;6.936;2023-02-26T10:12:40;1.27;;;1.15;;
2458;SDS011;1241;50.920;6.936;2023-02-26T10:15:11;2.10;;;1.80;;
2458;SDS011;1241;50.920;6.936;2023-02-26T10:17:47;1.90;;;1.63;;
2458;SDS011;1241;50.920;6.936;2023-02-26T10:23:49;3.72;;;1.50;;
2458;SDS011;1241;50.920;6.936;2023-02-26T10:26:03;1.92;;;1.45;;
2458;SDS011;1241;50.920;6.936;2023-02-26T10:34:16;2.83;;;1.20;;
2458;SDS011;1241;50.920;6.936;2023-02-26T10:39:32;1.60;;;1.27;;
2458;SDS011;1241;50.920;6.936;2023-02-26T10:42:17;1.70;;;1.60;;
2458;SDS011;1241;50.920;6.936;2023-02-26T10:44:50;2.08;;;1.50;;
2458;SDS011;1241;50.920;6.936;2023-02-26T10:47:36;1.25;;;1.15;;
2458;SDS011;1241;50.920;6.936;2023-02-26T10:50:22;3.67;;;1.20;;
2458;SDS011;1241;50.920;6.936;2023-02-26T10:52:48;2.03;;;1.55;;
2458;SDS011;1241;50.920;6.936;2023-02-26T11:00:29;3.15;;;1.10;;
2458;SDS011;1241;50.920;6.936;2023-02-26T11:02:59;1.48;;;1.33;;
2458;SDS011;1241;50.920;6.936;2023-02-26T11:05:28;4.97;;;1.17;;
2458;SDS011;1241;50.920;6.936;2023-02-26T11:07:56;1.25;;;1.00;;
2458;SDS011;1241;50.920;6.936;2023-02-26T11:10:38;1.20;;;1.05;;
2458;SDS011;1241;50.920;6.936;2023-02-26T11:13:15;1.55;;;1.17;;
2458;SDS011;1241;50.920;6.936;2023-02-26T11:15:42;2.25;;;1.20;;
2458;SDS011;1241;50.920;6.936;2023-02-26T11:18:12;1.33;;;1.23;;
2458;SDS011;1241;50.920;6.936;2023-02-26T11:20:43;1.83;;;1.10;;
2458;SDS011;1241;50.920;6.936;2023-02-26T11:23:16;1.40;;;1.30;;
2458;SDS011;1241;50.920;6.936;2023-02-26T11:25:44;1.50;;;1.35;;
2458;SDS011;1241;50.920;6.936;2023-02-26T11:28:25;1.38;;;1.27;;
2458;SDS011;1241;50.920;6.936;2023-02-26T11:30:55;1.77;;;1.38;;
2458;SDS011;1241;50.920;6.936;2023-02-26T11:33:31;1.75;;;1.25;;
2458;SDS011;1241;50.920;6.936;2023-02-26T11:36:02;1.50;;;1.38;;
2458;SDS011;1241;50.920;6.936;2023-02-26T11:38:33;1.90;;;1.58;;
2458;SDS011;1241;50.920;6.936;2023-02-26T11:40:59;2.25;;;1.27;;
2458;SDS011;1241;50.920;6.936;2023-02-26T11:43:32;1.83;;;1.55;;
2458;SDS011;1241;50.920;6.936;2023-02-26T11:46:01;2.13;;;1.27;;
2458;SDS011;1241;50.920;6.936;2023-02-26T11:48:30;1.65;;;0.88;;
2458;SDS011;1241;50.920;6.936;2023-02-26T11:51:03;1.30;;;1.10;;
2458;SDS011;1241;50.920;6.936;2023-02-26T11:53:33;2.95;;;1.42;;
2458;SDS011;1241;50.920;6.936;2023-02-26T11:56:01;1.70;;;0.82;;
2458;SDS011;1241;50.920;6.936;2023-02-26T11:58:33;2.47;;;1.10;;
2458;SDS011;1241;50.920;6.936;2023-02-26T12:01:01;2.17;;;1.33;;
2458;SDS011;1241;50.920;6.936;2023-02-26T12:03:33;1.20;;;1.10;;
2458;SDS011;1241;50.920;6.936;2023-02-26T12:06:05;2.42;;;1.13;;
2458;SDS011;1241;50.920;6.936;2023-02-26T12:08:33;2.72;;;1.55;;
2458;SDS011;1241;50.920;6.936;2023-02-26T12:19:00;2.88;;;1.35;;
2458;SDS011;1241;50.920;6.936;2023-02-26T12:51:44;2.15;;;1.40;;
2458;SDS011;1241;50.920;6.936;2023-02-26T12:54:31;1.27;;;1.20;;
2458;SDS011;1241;50.920;6.936;2023-02-26T13:05:02;0.90;;;0.80;;
2458;SDS011;1241;50.920;6.936;2023-02-26T13:10:32;3.90;;;1.80;;
2458;SDS011;1241;50.920;6.936;2023-02-26T13:21:09;2.75;;;1.48;;
2458;SDS011;1241;50.920;6.936;2023-02-26T13:23:52;1.13;;;1.13;;
2458;SDS011;1241;50.920;6.936;2023-02-26T13:26:22;2.60;;;2.08;;
2458;SDS011;1241;50.920;6.936;2023-02-26T13:29:03;1.73;;;1.55;;
2458;SDS011;1241;50.920;6.936;2023-02-26T13:34:20;5.00;;;1.20;;
2458;SDS011;1241;50.920;6.936;2023-02-26T13:37:03;1.33;;;1.13;;
2458;SDS011;1241;50.920;6.936;2023-02-26T13:45:05;1.00;;;0.98;;
2458;SDS011;1241;50.920;6.936;2023-02-26T13:48:03;1.48;;;1.33;;
2458;SDS011;1241;50.920;6.936;2023-02-26T13:50:56;1.90;;;1.25;;
2458;SDS011;1241;50.920;6.936;2023-02-26T13:53:48;1.85;;;1.30;;
2458;SDS011;1241;50.920;6.936;2023-02-26T13:56:21;2.85;;;1.30;;
2458;SDS011;1241;50.920;6.936;2023-02-26T14:18:02;3.72;;;1.50;;
2458;SDS011;1241;50.920;6.936;2023-02-26T14:20:42;2.58;;;1.17;;
2458;SDS011;1241;50.920;6.936;2023-02-26T14:23:31;2.85;;;1.50;;
2458;SDS011;1241;50.920;6.936;2023-02-26T14:26:04;0.90;;;0.80;;
2458;SDS011;1241;50.920;6.936;2023-02-26T14:28:43;2.75;;;1.80;;
2458;SDS011;1241;50.920;6.936;2023-02-26T14:34:30;2.40;;;1.17;;
2458;SDS011;1241;50.920;6.936;2023-02-26T14:37:05;1.83;;;1.00;;
2458;SDS011;1241;50.920;6.936;2023-02-26T14:39:39;3.05;;;1.33;;
2458;SDS011;1241;50.920;6.936;2023-02-26T14:44:49;2.10;;;1.60;;
2458;SDS011;1241;50.920;6.936;2023-02-26T14:47:18;3.72;;;1.40;;
2458;SDS011;1241;50.920;6.936;2023-02-26T14:49:45;1.50;;;1.40;;
2458;SDS011;1241;50.920;6.936;2023-02-26T14:52:18;3.63;;;1.75;;
2458;SDS011;1241;50.920;6.936;2023-02-26T14:57:42;2.78;;;1.42;;
2458;SDS011;1241;50.920;6.936;2023-02-26T15:03:13;1.80;;;1.67;;
2458;SDS011;1241;50.920;6.936;2023-02-26T15:10:09;1.70;;;1.20;;
2458;SDS011;1241;50.920;6.936;2023-02-26T15:12:35;2.45;;;1.48;;
2458;SDS011;1241;50.920;6.936;2023-02-26T15:15:12;2.25;;;1.50;;
2458;SDS011;1241;50.920;6.936;2023-02-26T15:18:23;2.30;;;1.30;;
2458;SDS011;1241;50.920;6.936;2023-02-26T15:23:46;3.10;;;1.40;;
2458;SDS011;1241;50.920;6.936;2023-02-26T15:26:18;1.35;;;1.25;;
2458;SDS011;1241;50.920;6.936;2023-02-26T15:28:47;1.60;;;1.30;;
2458;SDS011;1241;50.920;6.936;2023-02-26T15:31:13;3.05;;;1.60;;
2458;SDS011;1241;50.920;6.936;2023-02-26T15:33:42;1.08;;;1.05;;
2458;SDS011;1241;50.920;6.936;2023-02-26T15:36:13;2.45;;;1.67;;
2458;SDS011;1241;50.920;6.936;2023-02-26T15:38:46;2.05;;;1.30;;
2458;SDS011;1241;50.920;6.936;2023-02-26T15:41:13;3.63;;;1.10;;
2458;SDS011;1241;50.920;6.936;2023-02-26T15:43:43;2.08;;;1.00;;
2458;SDS011;1241;50.920;6.936;2023-02-26T15:46:13;3.50;;;1.25;;
2458;SDS011;1241;50.920;6.936;2023-02-26T15:48:40;3.13;;;1.40;;
2458;SDS011;1241;50.920;6.936;2023-02-26T15:51:07;2.47;;;1.60;;
2458;SDS011;1241;50.920;6.936;2023-02-26T15:53:36;3.78;;;1.35;;
2458;SDS011;1241;50.920;6.936;2023-02-26T15:56:12;7.88;;;1.45;;
2458;SDS011;1241;50.920;6.936;2023-02-26T15:58:49;2.00;;;1.77;;
2458;SDS011;1241;50.920;6.936;2023-02-26T16:01:24;1.30;;;1.20;;
2458;SDS011;1241;50.920;6.936;2023-02-26T16:03:54;2.47;;;1.48;;
2458;SDS011;1241;50.920;6.936;2023-02-26T16:06:45;2.17;;;1.27;;
2458;SDS011;1241;50.920;6.936;2023-02-26T16:11:45;1.48;;;1.25;;
2458;SDS011;1241;50.920;6.936;2023-02-26T16:14:17;1.10;;;1.00;;
2458;SDS011;1241;50.920;6.936;2023-02-26T16:16:49;2.05;;;1.70;;
2458;SDS011;1241;50.920;6.936;2023-02-26T16:19:18;1.15;;;1.05;;
2458;SDS011;1241;50.920;6.936;2023-02-26T16:21:56;3.20;;;1.88;;
2458;SDS011;1241;50.920;6.936;2023-02-26T16:24:24;1.33;;;1.23;;
2458;SDS011;1241;50.920;6.936;2023-02-26T16:26:53;4.35;;;2.03;;
2458;SDS011;1241;50.920;6.936;2023-02-26T16:29:26;3.05;;;2.00;;
2458;SDS011;1241;50.920;6.936;2023-02-26T16:31:54;2.50;;;1.40;;
2458;SDS011;1241;50.920;6.936;2023-02-26T16:34:27;2.22;;;1.40;;
2458;SDS011;1241;50.920;6.936;2023-02-26T16:36:55;1.38;;;1.05;;
2458;SDS011;1241;50.920;6.936;2023-02-26T16:39:25;4.87;;;1.77;;
2458;SDS011;1241;50.920;6.936;2023-02-26T16:42:14;1.35;;;1.10;;
2458;SDS011;1241;50.920;6.936;2023-02-26T16:44:50;1.30;;;1.13;;
2458;SDS011;1241;50.920;6.936;2023-02-26T16:47:27;2.25;;;1.20;;
2458;SDS011;1241;50.920;6.936;2023-02-26T16:49:55;3.53;;;1.48;;
2458;SDS011;1241;50.920;6.936;2023-02-26T16:52:21;3.20;;;1.25;;
2458;SDS011;1241;50.920;6.936;2023-02-26T16:54:57;2.25;;;1.50;;
2458;SDS011;1241;50.920;6.936;2023-02-26T16:57:33;1.90;;;1.70;;
2458;SDS011;1241;50.920;6.936;2023-02-26T17:00:09;3.42;;;1.95;;
2458;SDS011;1241;50.920;6.936;2023-02-26T17:02:41;1.95;;;1.67;;
2458;SDS011;1241;50.920;6.936;2023-02-26T17:05:15;2.97;;;1.65;;
2458;SDS011;1241;50.920;6.936;2023-02-26T17:07:47;3.75;;;1.85;;
2458;SDS011;1241;50.920;6.936;2023-02-26T17:10:20;1.65;;;1.40;;
2458;SDS011;1241;50.920;6.936;2023-02-26T17:12:49;1.52;;;1.40;;
2458;SDS011;1241;50.920;6.936;2023-02-26T17:15:18;3.30;;;1.60;;
2458;SDS011;1241;50.920;6.936;2023-02-26T17:17:50;1.75;;;1.48;;
2458;SDS011;1241;50.920;6.936;2023-02-26T17:20:20;2.08;;;1.40;;
2458;SDS011;1241;50.920;6.936;2023-02-26T17:22:47;2.17;;;1.75;;
2458;SDS011;1241;50.920;6.936;2023-02-26T17:25:14;3.13;;;1.70;;
2458;SDS011;1241;50.920;6.936;2023-02-26T17:27:41;2.03;;;1.73;;
2458;SDS011;1241;50.920;6.936;2023-02-26T17:30:10;3.20;;;1.88;;
2458;SDS011;1241;50.920;6.936;2023-02-26T17:32:40;2.35;;;1.58;;
2458;SDS011;1241;50.920;6.936;2023-02-26T17:35:07;3.10;;;1.83;;
2458;SDS011;1241;50.920;6.936;2023-02-26T17:37:35;3.38;;;1.90;;
2458;SDS011;1241;50.920;6.936;2023-02-26T17:40:03;2.83;;;1.65;;
2458;SDS011;1241;50.920;6.936;2023-02-26T17:42:37;3.72;;;1.70;;
2458;SDS011;1241;50.920;6.936;2023-02-26T17:45:03;2.90;;;2.27;;
2458;SDS011;1241;50.920;6.936;2023-02-26T17:47:29;2.83;;;1.83;;
2458;SDS011;1241;50.920;6.936;2023-02-26T17:49:55;2.17;;;1.97;;
2458;SDS011;1241;50.920;6.936;2023-02-26T17:52:21;3.55;;;2.20;;
2458;SDS011;1241;50.920;6.936;2023-02-26T17:54:47;4.03;;;2.30;;
2458;SDS011;1241;50.920;6.936;2023-02-26T17:57:16;4.57;;;2.73;;
2458;SDS011;1241;50.920;6.936;2023-02-26T17:59:44;2.63;;;1.70;;
2458;SDS011;1241;50.920;6.936;2023-02-26T18:02:17;4.35;;;2.63;;
2458;SDS011;1241;50.920;6.936;2023-02-26T18:04:47;3.67;;;2.55;;
2458;SDS011;1241;50.920;6.936;2023-02-26T18:07:13;2.77;;;2.50;;
2458;SDS011;1241;50.920;6.936;2023-02-26T18:09:41;2.38;;;2.17;;
2458;SDS011;1241;50.920;6.936;2023-02-26T18:12:13;3.67;;;2.40;;
2458;SDS011;1241;50.920;6.936;2023-02-26T18:14:40;2.75;;;2.53;;
2458;SDS011;1241;50.920;6.936;2023-02-26T18:17:09;3.30;;;3.00;;
2458;SDS011;1241;50.920;6.936;2023-02-26T18:19:40;5.03;;;3.40;;
2458;SDS011;1241;50.920;6.936;2023-02-26T18:22:16;4.80;;;3.47;;
2458;SDS011;1241;50.920;6.936;2023-02-26T18:24:44;5.10;;;3.65;;
2458;SDS011;1241;50.920;6.936;2023-02-26T18:27:11;5.53;;;3.50;;
2458;SDS011;1241;50.920;6.936;2023-02-26T18:29:38;10.50;;;7.55;;
2458;SDS011;1241;50.920;6.936;2023-02-26T18:32:04;12.00;;;6.40;;
2458;SDS011;1241;50.920;6.936;2023-02-26T18:34:30;5.68;;;3.42;;
2458;SDS011;1241;50.920;6.936;2023-02-26T18:36:56;5.00;;;3.13;;
2458;SDS011;1241;50.920;6.936;2023-02-26T18:39:21;3.63;;;2.63;;
2458;SDS011;1241;50.920;6.936;2023-02-26T18:41:51;6.30;;;3.80;;
2458;SDS011;1241;50.920;6.936;2023-02-26T18:44:17;2.72;;;2.53;;
2458;SDS011;1241;50.920;6.936;2023-02-26T18:46:43;3.37;;;2.77;;
2458;SDS011;1241;50.920;6.936;2023-02-26T18:49:18;3.10;;;2.80;;